SJQK weather

Barra do Vento Airport
Boa Vista, Roraima, Brazil

Public forecast

Using degrees Celsius for public forecast. Weather courtesy of forecast.io.

Closest aviation weather report (METAR) to Barra do Vento Airport

Closest report is Atlas Brasil Cantanhede Airport, 11.4 nm (21.1 km) NE. Retrieved 2020/02/26 04:00 UTC (60 minutes ago):

SBBV 260400Z 10009KT CAVOK 29/20 Q1011

Closest aviation forecast (TAF) to Barra do Vento Airport

Closest forecast is Atlas Brasil Cantanhede Airport, 11.4 nm (21.1 km) NE. Retrieved 2020-02-26 00:00 UTC (5 hours ago):

TAF SBBV 252100Z 2600/2624 12005KT CAVOK TN27/2608Z TX33/2618Z BECMG 2610/2612 12015KT FEW030 BECMG 2616/2618 09010KT BKN030 BECMG 2619/2621 BKN030 FEW040TCU RMK PGY